Time;durP1;ratioP1;P1;durP2;ratioP2;P2;SDS_P1;SDS_P2;PMS_P1;PMS_P2;Temp;Humidity;BMP_temperature;BMP_pressure;BME280_temperature;BME280_humidity;BME280_pressure;Samples;Min_cycle;Max_cycle;Signal;HPM_P1;HPM_P2
2023/08/24 00:00:33;;;;;;;12.50;10.10;;;;;;;16.77;100.00;96828.17;109393;1291;139084;-91
2023/08/24 00:03:21;;;;;;;10.90;9.80;;;;;;;16.76;100.00;96821.20;109478;1287;22226;-91
2023/08/24 00:05:47;;;;;;;10.40;9.40;;;;;;;16.75;100.00;96820.82;109417;1287;22233;-92
2023/08/24 00:08:14;;;;;;;10.90;9.80;;;;;;;16.73;100.00;96821.59;109445;1286;138964;-92
2023/08/24 00:10:43;;;;;;;10.60;9.60;;;;;;;16.74;100.00;96813.80;109693;1283;22514;-92
2023/08/24 00:13:09;;;;;;;11.30;10.10;;;;;;;16.75;100.00;96815.73;109504;1287;139126;-91
2023/08/24 00:15:36;;;;;;;10.50;9.50;;;;;;;16.76;100.00;96821.16;109610;1284;22191;-91
2023/08/24 00:18:02;;;;;;;10.90;9.40;;;;;;;16.76;100.00;96823.94;109399;1289;22220;-92
2023/08/24 00:20:30;;;;;;;10.50;9.40;;;;;;;16.76;100.00;96823.13;109473;1285;139557;-91
2023/08/24 00:22:56;;;;;;;10.70;9.60;;;;;;;16.74;100.00;96821.58;109462;1287;22293;-92
2023/08/24 00:25:24;;;;;;;11.10;9.80;;;;;;;16.73;100.00;96825.47;109535;1290;138846;-92
2023/08/24 00:27:55;;;;;;;11.20;9.50;;;;;;;16.72;100.00;96828.26;109413;1287;22196;-92
2023/08/24 00:30:21;;;;;;;10.90;9.30;;;;;;;16.70;100.00;96830.36;109503;1290;22220;-92
2023/08/24 00:32:50;;;;;;;11.90;9.60;;;;;;;16.69;100.00;96831.75;109479;1286;24070;-92
2023/08/24 00:35:16;;;;;;;9.30;7.70;;;;;;;16.68;100.00;96832.81;109514;1287;22192;-92
2023/08/24 00:37:43;;;;;;;8.30;7.30;;;;;;;16.67;100.00;96831.88;109315;1290;138887;-91
2023/08/24 00:40:09;;;;;;;9.40;7.50;;;;;;;16.66;100.00;96830.98;109395;1291;22910;-91
2023/08/24 00:42:56;;;;;;;9.30;7.50;;;;;;;16.65;100.00;96834.61;109473;1290;139499;-92
2023/08/24 00:45:22;;;;;;;10.30;7.80;;;;;;;16.63;100.00;96833.61;109567;1285;22927;-92
2023/08/24 00:47:49;;;;;;;9.10;7.00;;;;;;;16.62;100.00;96838.02;109488;1287;23106;-92
2023/08/24 00:50:17;;;;;;;7.60;6.90;;;;;;;16.61;100.00;96840.49;109402;1289;138721;-92
2023/08/24 00:52:43;;;;;;;9.30;7.70;;;;;;;16.59;100.00;96841.61;109613;1291;22447;-91
2023/08/24 00:55:10;;;;;;;10.00;8.20;;;;;;;16.58;100.00;96838.42;109354;1291;139019;-92
2023/08/24 00:57:37;;;;;;;8.30;7.50;;;;;;;16.57;100.00;96832.01;109488;1285;22219;-92
2023/08/24 01:00:05;;;;;;;8.90;7.80;;;;;;;16.58;100.00;96829.83;109491;1287;22253;-91
2023/08/24 01:02:32;;;;;;;9.30;7.80;;;;;;;16.58;100.00;96829.62;109424;1288;139005;-92
2023/08/24 01:04:59;;;;;;;9.30;8.00;;;;;;;16.58;100.00;96831.99;109491;1290;23027;-91
2023/08/24 01:07:26;;;;;;;9.60;8.40;;;;;;;16.60;100.00;96828.23;109337;1286;138621;-92
2023/08/24 01:09:53;;;;;;;8.50;7.70;;;;;;;16.58;100.00;96824.65;109487;1284;22106;-91
2023/08/24 01:12:50;;;;;;;10.20;9.00;;;;;;;16.58;100.00;96821.86;109638;1284;22249;-92
2023/08/24 01:16:26;;;;;;;9.60;8.50;;;;;;;16.58;100.00;96825.27;109672;1283;22898;-92
2023/08/24 01:18:57;;;;;;;10.70;9.00;;;;;;;16.58;100.00;96822.96;109549;1284;138504;-92
2023/08/24 01:21:23;;;;;;;10.50;9.40;;;;;;;16.58;100.00;96824.81;109595;1287;22197;-92
2023/08/24 01:24:18;;;;;;;11.00;9.00;;;;;;;16.58;100.00;96828.57;109511;1287;23016;-91
2023/08/24 01:26:44;;;;;;;10.40;9.30;;;;;;;16.58;100.00;96825.83;109554;1284;138711;-92
2023/08/24 01:29:11;;;;;;;13.20;10.00;;;;;;;16.54;100.00;96824.60;109551;1283;22219;-92
2023/08/24 01:31:37;;;;;;;12.50;10.70;;;;;;;16.51;100.00;96827.73;109457;1287;139291;-91
2023/08/24 01:34:04;;;;;;;11.10;10.00;;;;;;;16.49;100.00;96829.86;109574;1283;22428;-92
2023/08/24 01:36:31;;;;;;;12.10;10.40;;;;;;;16.48;100.00;96833.42;109467;1287;22692;-91
2023/08/24 01:39:30;;;;;;;11.80;10.50;;;;;;;16.47;100.00;96834.13;109479;1289;22345;-92
2023/08/24 01:41:57;;;;;;;11.00;9.90;;;;;;;16.45;100.00;96832.44;109642;1283;22184;-92
2023/08/24 01:44:25;;;;;;;11.50;9.60;;;;;;;16.43;100.00;96836.84;109464;1288;139013;-91
2023/08/24 01:46:52;;;;;;;12.10;9.80;;;;;;;16.43;100.00;96834.64;109682;1284;22309;-89
2023/08/24 01:49:18;;;;;;;10.30;9.30;;;;;;;16.42;100.00;96832.83;109524;1284;139203;-90
2023/08/24 01:51:45;;;;;;;11.10;10.00;;;;;;;16.41;100.00;96834.37;109643;1284;22396;-89
2023/08/24 01:54:12;;;;;;;13.40;10.40;;;;;;;16.40;100.00;96831.02;109647;1289;22126;-91
2023/08/24 01:56:38;;;;;;;12.30;10.50;;;;;;;16.39;100.00;96830.46;109482;1287;139389;-90
2023/08/24 01:59:05;;;;;;;12.40;11.10;;;;;;;16.39;100.00;96832.92;109592;1290;22260;-90
2023/08/24 02:01:32;;;;;;;14.30;12.90;;;;;;;16.38;100.00;96830.02;109336;1287;137724;-90
2023/08/24 02:03:59;;;;;;;15.40;12.20;;;;;;;16.39;100.00;96832.44;109519;1291;22617;-91
2023/08/24 02:06:26;;;;;;;17.00;13.40;;;;;;;16.38;100.00;96835.19;109536;1286;22919;-91
2023/08/24 02:08:54;;;;;;;14.40;13.00;;;;;;;16.37;100.00;96835.88;109530;1285;139387;-90
2023/08/24 02:11:30;;;;;;;15.10;13.10;;;;;;;16.37;100.00;96835.64;109508;1289;22307;-91
2023/08/24 02:14:05;;;;;;;13.40;12.10;;;;;;;16.37;100.00;96841.00;109494;1289;137839;-91
2023/08/24 02:16:33;;;;;;;16.80;11.70;;;;;;;16.38;100.00;96838.41;109600;1283;22120;-91
2023/08/24 02:18:59;;;;;;;14.40;12.90;;;;;;;16.38;100.00;96841.92;109518;1289;139163;-90
2023/08/24 02:21:30;;;;;;;15.10;12.20;;;;;;;16.37;100.00;96842.13;109660;1283;22956;-92
2023/08/24 02:24:06;;;;;;;13.60;12.30;;;;;;;16.34;100.00;96844.41;109663;1287;22168;-90
2023/08/24 02:26:33;;;;;;;14.30;12.50;;;;;;;16.33;100.00;96844.05;109511;1279;139049;-91
2023/08/24 02:28:59;;;;;;;13.90;11.90;;;;;;;16.32;100.00;96843.61;109468;1289;22240;-91
2023/08/24 02:31:26;;;;;;;12.60;10.80;;;;;;;16.31;100.00;96842.08;109404;1287;139295;-91
2023/08/24 02:33:56;;;;;;;13.00;11.70;;;;;;;16.28;100.00;96840.15;109543;1286;22752;-91
2023/08/24 02:36:23;;;;;;;14.00;10.70;;;;;;;16.27;100.00;96836.93;109640;1284;22310;-91
2023/08/24 02:38:49;;;;;;;14.80;11.30;;;;;;;16.26;100.00;96836.59;109409;1284;138605;-91
2023/08/24 02:41:15;;;;;;;12.50;11.10;;;;;;;16.26;100.00;96832.44;109473;1289;22186;-91
2023/08/24 02:43:42;;;;;;;12.00;10.80;;;;;;;16.26;100.00;96836.75;109418;1282;138886;-91
2023/08/24 02:46:09;;;;;;;13.50;11.30;;;;;;;16.25;100.00;96836.30;109643;1285;22204;-91
2023/08/24 02:48:38;;;;;;;14.20;11.50;;;;;;;16.24;100.00;96837.00;109466;1283;139651;-91
2023/08/24 02:51:04;;;;;;;15.20;11.70;;;;;;;16.22;100.00;96836.23;109471;1287;22343;-91
2023/08/24 02:53:51;;;;;;;11.20;10.00;;;;;;;16.20;100.00;96837.55;109547;1289;22148;-90
2023/08/24 02:56:19;;;;;;;12.90;11.20;;;;;;;16.18;100.00;96834.24;109329;1289;189038;-90
2023/08/24 02:58:46;;;;;;;11.90;10.70;;;;;;;16.19;100.00;96836.86;109525;1288;22240;-91
2023/08/24 03:01:13;;;;;;;12.30;11.00;;;;;;;16.17;100.00;96831.46;109425;1289;139072;-90
2023/08/24 03:03:40;;;;;;;12.10;10.80;;;;;;;16.17;100.00;96832.11;109615;1287;22220;-91
2023/08/24 03:06:07;;;;;;;11.90;10.60;;;;;;;16.17;100.00;96833.84;109517;1289;22199;-90
2023/08/24 03:08:34;;;;;;;17.00;12.40;;;;;;;16.19;100.00;96839.08;109444;1287;139027;-90
2023/08/24 03:11:02;;;;;;;12.60;11.00;;;;;;;16.20;100.00;96838.11;109431;1283;22347;-90
2023/08/24 03:13:29;;;;;;;11.90;10.70;;;;;;;16.20;100.00;96836.86;109490;1285;139031;-91
2023/08/24 03:15:55;;;;;;;12.70;10.60;;;;;;;16.18;100.00;96836.42;109592;1285;22208;-90
2023/08/24 03:18:21;;;;;;;12.20;11.00;;;;;;;16.16;100.00;96836.52;109572;1289;22212;-91
2023/08/24 03:20:48;;;;;;;12.70;10.70;;;;;;;16.15;100.00;96831.91;109479;1289;138999;-91
2023/08/24 03:23:16;;;;;;;11.10;10.00;;;;;;;16.14;100.00;96832.58;109546;1289;22193;-91
2023/08/24 03:25:43;;;;;;;13.40;10.60;;;;;;;16.13;100.00;96830.10;109396;1285;139225;-90
2023/08/24 03:28:18;;;;;;;11.40;9.70;;;;;;;16.12;100.00;96827.78;109465;1284;22277;-91
2023/08/24 03:31:02;;;;;;;10.50;9.40;;;;;;;16.10;100.00;96823.65;109442;1287;138973;-89
2023/08/24 03:33:33;;;;;;;10.60;9.00;;;;;;;16.08;100.00;96823.13;109533;1286;22189;-90
2023/08/24 03:35:59;;;;;;;10.00;7.90;;;;;;;16.03;100.00;96819.20;109530;1286;22260;-91
2023/08/24 03:38:33;;;;;;;10.60;7.80;;;;;;;15.98;100.00;96819.58;109352;1284;140300;-91
2023/08/24 03:41:16;;;;;;;8.50;8.00;;;;;;;15.96;100.00;96825.30;109638;1284;22188;-91
2023/08/24 03:43:45;;;;;;;8.70;6.80;;;;;;;15.93;100.00;96825.41;109342;1285;138770;-91
2023/08/24 03:46:12;;;;;;;8.10;7.10;;;;;;;15.90;100.00;96821.87;109471;1290;22960;-90
2023/08/24 03:48:38;;;;;;;9.00;7.40;;;;;;;15.88;100.00;96821.88;109529;1283;140013;-91
2023/08/24 03:51:13;;;;;;;10.40;7.30;;;;;;;15.85;100.00;96824.19;109447;1284;22181;-91
2023/08/24 03:53:59;;;;;;;6.90;6.10;;;;;;;15.83;100.00;96825.93;109566;1287;22373;-91
2023/08/24 03:56:26;;;;;;;9.70;6.60;;;;;;;15.81;100.00;96826.21;109525;1283;139310;-90
2023/08/24 03:58:53;;;;;;;7.50;6.30;;;;;;;15.79;100.00;96827.67;109609;1287;22232;-91
2023/08/24 04:01:27;;;;;;;8.00;6.80;;;;;;;15.78;100.00;96828.55;109396;1287;138807;-90
2023/08/24 04:03:53;;;;;;;8.20;6.20;;;;;;;15.78;100.00;96826.98;109419;1286;22203;-90
2023/08/24 04:06:21;;;;;;;8.80;6.40;;;;;;;15.77;100.00;96824.14;109445;1285;22283;-91
2023/08/24 04:08:48;;;;;;;6.30;5.70;;;;;;;15.76;100.00;96826.53;109484;1289;138734;-90
2023/08/24 04:11:17;;;;;;;7.50;6.10;;;;;;;15.75;100.00;96823.02;109496;1287;22400;-90
2023/08/24 04:13:44;;;;;;;6.90;5.90;;;;;;;15.73;100.00;96823.55;109525;1287;138638;-91
2023/08/24 04:16:11;;;;;;;8.30;5.70;;;;;;;15.72;100.00;96827.26;109610;1290;22902;-90
2023/08/24 04:18:48;;;;;;;7.30;5.30;;;;;;;15.69;100.00;96832.84;109380;1285;139016;-91
2023/08/24 04:21:15;;;;;;;8.50;5.60;;;;;;;15.68;100.00;96833.16;109468;1283;22409;-91
2023/08/24 04:23:44;;;;;;;7.70;5.20;;;;;;;15.67;100.00;96836.74;109524;1284;22314;-90
2023/08/24 04:26:12;;;;;;;7.30;5.00;;;;;;;15.66;100.00;96834.05;109480;1289;138807;-90
2023/08/24 04:28:38;;;;;;;7.30;4.70;;;;;;;15.64;100.00;96838.01;109501;1287;22439;-90
2023/08/24 04:31:04;;;;;;;6.70;5.20;;;;;;;15.63;100.00;96839.65;109425;1283;138752;-90
2023/08/24 04:33:31;;;;;;;7.50;4.70;;;;;;;15.61;100.00;96840.16;109608;1289;22428;-91
2023/08/24 04:35:58;;;;;;;5.40;4.10;;;;;;;15.61;100.00;96838.98;109616;1284;22279;-90
2023/08/24 04:38:24;;;;;;;5.00;4.30;;;;;;;15.61;100.00;96835.44;109418;1289;138682;-91
2023/08/24 04:40:51;;;;;;;5.70;4.80;;;;;;;15.60;100.00;96836.81;109509;1289;22302;-90
2023/08/24 04:43:18;;;;;;;6.50;5.70;;;;;;;15.59;100.00;96835.70;109498;1284;138814;-90
2023/08/24 04:45:48;;;;;;;9.40;5.10;;;;;;;15.58;100.00;96835.98;109634;1289;22353;-89
2023/08/24 04:48:15;;;;;;;5.40;4.70;;;;;;;15.56;100.00;96836.02;109518;1284;23045;-90
2023/08/24 04:50:43;;;;;;;7.50;5.80;;;;;;;15.56;100.00;96829.05;109492;1289;138718;-91
2023/08/24 04:53:09;;;;;;;8.00;5.70;;;;;;;15.58;100.00;96826.39;109530;1283;23141;-89
2023/08/24 04:55:36;;;;;;;7.00;5.20;;;;;;;15.59;100.00;96827.42;109406;1286;138587;-91
2023/08/24 04:58:21;;;;;;;6.10;5.30;;;;;;;15.61;100.00;96831.24;109557;1287;22237;-90
2023/08/24 05:00:48;;;;;;;5.70;5.10;;;;;;;15.60;100.00;96832.21;109485;1289;139230;-91
2023/08/24 05:03:16;;;;;;;6.50;4.70;;;;;;;15.61;100.00;96836.44;109579;1288;22381;-91
2023/08/24 05:05:44;;;;;;;8.10;4.80;;;;;;;15.61;100.00;96836.00;109485;1289;22215;-91
2023/08/24 05:08:11;;;;;;;5.10;4.60;;;;;;;15.60;100.00;96835.00;109334;1283;138572;-91
2023/08/24 05:10:38;;;;;;;4.80;3.90;;;;;;;15.60;100.00;96838.17;109638;1289;22179;-90
2023/08/24 05:13:24;;;;;;;6.00;3.90;;;;;;;15.59;100.00;96836.69;109451;1284;139393;-91
2023/08/24 05:15:51;;;;;;;4.80;3.40;;;;;;;15.58;100.00;96838.77;109454;1290;22223;-91
2023/08/24 05:18:17;;;;;;;5.90;3.70;;;;;;;15.59;100.00;96842.52;109531;1287;22191;-91
2023/08/24 05:20:43;;;;;;;3.10;2.80;;;;;;;15.57;100.00;96839.73;109513;1284;139553;-91
2023/08/24 05:23:09;;;;;;;4.90;2.80;;;;;;;15.59;100.00;96845.86;109501;1290;22214;-90
2023/08/24 05:25:35;;;;;;;3.30;3.00;;;;;;;15.60;100.00;96851.11;109403;1289;139654;-91
2023/08/24 05:28:03;;;;;;;4.70;3.00;;;;;;;15.58;100.00;96848.58;109580;1286;22362;-91
2023/08/24 05:30:29;;;;;;;4.00;3.00;;;;;;;15.57;100.00;96850.33;109509;1288;22209;-91
2023/08/24 05:32:56;;;;;;;6.40;3.00;;;;;;;15.57;100.00;96853.30;109459;1285;138134;-90
2023/08/24 05:35:31;;;;;;;4.40;2.80;;;;;;;15.57;100.00;96856.16;109539;1289;22236;-90
2023/08/24 05:37:57;;;;;;;3.70;3.00;;;;;;;15.56;100.00;96856.89;109439;1288;138605;-90
2023/08/24 05:40:24;;;;;;;4.70;2.90;;;;;;;15.56;100.00;96858.46;109603;1286;22304;-90
2023/08/24 05:42:53;;;;;;;3.50;2.70;;;;;;;15.55;100.00;96857.09;109421;1285;138670;-89
2023/08/24 05:45:19;;;;;;;5.20;2.80;;;;;;;15.56;100.00;96857.48;109586;1289;22234;-90
2023/08/24 05:47:45;;;;;;;4.70;2.90;;;;;;;15.58;100.00;96858.95;109586;1284;22188;-90
2023/08/24 05:50:13;;;;;;;5.70;3.00;;;;;;;15.59;100.00;96859.77;109505;1284;138655;-90
2023/08/24 05:52:40;;;;;;;3.50;2.60;;;;;;;15.61;100.00;96862.15;109606;1289;22924;-90
2023/08/24 05:55:06;;;;;;;3.70;2.60;;;;;;;15.65;100.00;96866.13;109530;1284;138739;-91
2023/08/24 05:57:41;;;;;;;3.50;2.60;;;;;;;15.68;100.00;96861.53;109612;1284;22200;-91
2023/08/24 06:00:09;;;;;;;4.30;3.00;;;;;;;15.70;100.00;96862.70;109526;1283;22138;-89
2023/08/24 06:02:36;;;;;;;4.00;3.00;;;;;;;15.74;100.00;96863.09;109411;1283;138827;-90
2023/08/24 06:05:04;;;;;;;6.90;3.90;;;;;;;15.77;100.00;96861.96;109514;1286;22240;-90
2023/08/24 06:07:31;;;;;;;6.30;3.60;;;;;;;15.80;100.00;96863.34;109434;1289;139790;-90
2023/08/24 06:09:57;;;;;;;6.50;3.60;;;;;;;15.82;100.00;96861.37;109608;1284;22668;-91
2023/08/24 06:12:32;;;;;;;5.20;3.80;;;;;;;15.84;100.00;96858.26;109534;1290;22291;-91
2023/08/24 06:15:03;;;;;;;5.60;3.40;;;;;;;15.87;100.00;96862.36;109618;1285;22322;-91
2023/08/24 06:17:31;;;;;;;5.80;3.90;;;;;;;15.91;100.00;96864.64;109594;1289;22188;-91
2023/08/24 06:20:05;;;;;;;6.30;3.70;;;;;;;15.96;100.00;96866.27;109437;1289;139166;-91
2023/08/24 06:22:31;;;;;;;5.40;2.90;;;;;;;16.00;100.00;96868.20;109585;1289;23217;-91
2023/08/24 06:24:59;;;;;;;5.80;3.60;;;;;;;16.02;100.00;96861.73;109473;1286;139045;-90
2023/08/24 06:27:27;;;;;;;5.40;3.70;;;;;;;16.06;100.00;96866.16;109605;1289;22211;-91
2023/08/24 06:29:53;;;;;;;5.60;3.60;;;;;;;16.08;100.00;96863.09;109444;1285;22678;-90
2023/08/24 06:32:19;;;;;;;4.10;3.60;;;;;;;16.10;100.00;96865.40;109349;1290;138748;-91
2023/08/24 06:34:46;;;;;;;4.10;3.70;;;;;;;16.14;100.00;96864.75;109574;1290;23434;-91
2023/08/24 06:37:12;;;;;;;5.00;3.90;;;;;;;16.18;100.00;96866.67;109491;1288;138918;-92
2023/08/24 06:39:39;;;;;;;6.40;3.70;;;;;;;16.21;100.00;96861.30;109492;1290;22163;-90
2023/08/24 06:42:09;;;;;;;4.10;3.60;;;;;;;16.27;100.00;96861.98;109453;1290;22257;-91
2023/08/24 06:44:40;;;;;;;6.00;3.90;;;;;;;16.32;100.00;96863.22;109476;1283;138387;-91
2023/08/24 06:47:07;;;;;;;6.80;4.10;;;;;;;16.36;100.00;96866.46;109630;1283;22200;-91
2023/08/24 06:49:34;;;;;;;6.40;4.20;;;;;;;16.40;100.00;96865.72;109383;1286;138852;-91
2023/08/24 06:52:01;;;;;;;7.00;3.90;;;;;;;16.45;100.00;96865.16;109444;1289;22272;-91
2023/08/24 06:54:27;;;;;;;5.30;3.80;;;;;;;16.47;100.00;96868.02;109489;1279;22146;-91
2023/08/24 06:56:53;;;;;;;5.20;3.90;;;;;;;16.49;100.00;96870.66;109468;1290;138441;-91
2023/08/24 06:59:21;;;;;;;4.70;3.50;;;;;;;16.51;100.00;96871.42;109576;1283;22296;-91
2023/08/24 07:01:48;;;;;;;4.00;3.20;;;;;;;16.53;100.00;96871.17;109464;1289;137635;-91
2023/08/24 07:04:14;;;;;;;4.30;3.80;;;;;;;16.58;100.00;96874.63;109427;1288;22279;-91
2023/08/24 07:06:42;;;;;;;5.50;3.60;;;;;;;16.62;100.00;96874.34;109469;1288;139378;-91
2023/08/24 07:09:08;;;;;;;5.60;3.60;;;;;;;16.65;100.00;96874.61;109506;1290;23040;-91
2023/08/24 07:11:35;;;;;;;5.90;3.30;;;;;;;16.68;100.00;96875.63;109609;1288;22199;-91
2023/08/24 07:14:01;;;;;;;5.10;3.10;;;;;;;16.71;100.00;96874.32;109343;1283;139054;-91
2023/08/24 07:16:46;;;;;;;5.50;3.50;;;;;;;16.75;100.00;96877.46;109519;1287;22366;-90
2023/08/24 07:19:12;;;;;;;4.50;3.90;;;;;;;16.78;100.00;96882.46;109479;1284;138950;-90
2023/08/24 07:21:40;;;;;;;4.70;3.20;;;;;;;16.84;100.00;96882.67;109454;1290;22285;-91
2023/08/24 07:24:06;;;;;;;6.60;3.80;;;;;;;16.88;100.00;96884.98;109522;1289;22118;-91
2023/08/24 07:26:33;;;;;;;4.80;3.90;;;;;;;16.91;100.00;96890.86;109500;1290;138577;-91
2023/08/24 07:29:11;;;;;;;5.20;4.10;;;;;;;16.95;100.00;96890.88;109485;1283;22169;-91
2023/08/24 07:31:38;;;;;;;4.90;3.50;;;;;;;16.98;100.00;96889.73;109393;1291;138587;-90
2023/08/24 07:34:05;;;;;;;5.30;3.60;;;;;;;17.02;100.00;96890.91;109427;1291;22190;-91
2023/08/24 07:36:33;;;;;;;5.90;4.30;;;;;;;17.09;100.00;96883.41;109332;1290;138509;-90
2023/08/24 07:38:59;;;;;;;6.40;4.80;;;;;;;17.16;100.00;96881.40;109537;1290;23000;-90
2023/08/24 07:41:27;;;;;;;9.10;4.90;;;;;;;17.21;100.00;96885.11;109604;1289;22193;-91
2023/08/24 07:43:54;;;;;;;5.00;4.50;;;;;;;17.27;100.00;96888.08;109440;1290;139317;-91
2023/08/24 07:46:20;;;;;;;6.10;5.00;;;;;;;17.36;100.00;96893.21;109545;1286;22204;-91
2023/08/24 07:48:47;;;;;;;8.30;6.10;;;;;;;17.42;100.00;96896.17;109445;1289;138820;-91
2023/08/24 07:51:33;;;;;;;6.00;5.40;;;;;;;17.48;100.00;96895.90;109601;1289;22245;-91
2023/08/24 07:54:00;;;;;;;7.90;6.20;;;;;;;17.60;100.00;96897.31;109539;1287;22227;-91
2023/08/24 07:56:36;;;;;;;7.10;6.40;;;;;;;17.70;100.00;96896.23;109376;1290;138707;-90
2023/08/24 07:59:02;;;;;;;6.40;5.50;;;;;;;17.77;100.00;96894.39;109593;1288;22879;-91
2023/08/24 08:01:28;;;;;;;7.60;6.60;;;;;;;17.82;100.00;96897.95;109453;1289;138679;-91
2023/08/24 08:04:04;;;;;;;8.10;6.40;;;;;;;17.85;100.00;96897.27;109464;1292;22221;-91
2023/08/24 08:06:50;;;;;;;6.90;6.00;;;;;;;17.93;100.00;96898.63;109440;1289;138501;-90
2023/08/24 08:09:17;;;;;;;7.80;6.70;;;;;;;18.00;100.00;96898.52;109500;1283;22224;-90
2023/08/24 08:11:43;;;;;;;7.50;5.80;;;;;;;18.08;100.00;96893.23;109599;1289;22435;-90
2023/08/24 08:14:27;;;;;;;6.70;5.30;;;;;;;18.13;100.00;96887.55;109361;1290;138569;-90
2023/08/24 08:16:53;;;;;;;7.60;5.70;;;;;;;18.21;100.00;96885.02;109491;1283;22104;-91
2023/08/24 08:19:21;;;;;;;5.40;4.80;;;;;;;18.26;100.00;96892.79;109296;1290;138746;-91
2023/08/24 08:22:08;;;;;;;5.30;4.80;;;;;;;18.33;100.00;96892.30;109668;1287;22374;-90
2023/08/24 08:24:53;;;;;;;6.10;5.20;;;;;;;18.37;100.00;96893.63;109371;1289;138954;-91
2023/08/24 08:27:21;;;;;;;7.10;5.50;;;;;;;18.38;100.00;96897.80;109609;1282;22198;-92
2023/08/24 08:29:49;;;;;;;6.40;5.50;;;;;;;18.38;100.00;96898.11;109610;1284;22451;-91
2023/08/24 08:32:16;;;;;;;7.70;6.90;;;;;;;18.39;100.00;96897.03;109495;1290;138994;-91
2023/08/24 08:34:42;;;;;;;9.90;6.60;;;;;;;18.44;100.00;96899.00;109566;1289;22465;-91
2023/08/24 08:37:11;;;;;;;7.10;5.50;;;;;;;18.52;100.00;96899.55;109436;1283;138690;-90
2023/08/24 08:39:38;;;;;;;9.40;6.10;;;;;;;18.61;100.00;96898.66;109478;1290;22240;-92
2023/08/24 08:42:10;;;;;;;7.20;5.20;;;;;;;18.65;100.00;96895.11;109540;1290;22377;-91
2023/08/24 08:44:43;;;;;;;7.20;5.80;;;;;;;18.68;100.00;96896.36;109451;1282;138631;-91
2023/08/24 08:47:10;;;;;;;9.40;6.00;;;;;;;18.72;100.00;96891.84;109625;1289;22211;-91
2023/08/24 08:49:42;;;;;;;6.40;5.60;;;;;;;18.76;100.00;96892.59;109495;1289;139654;-91
2023/08/24 08:52:28;;;;;;;7.20;5.80;;;;;;;18.82;100.00;96894.59;109609;1286;22144;-91
2023/08/24 08:55:15;;;;;;;6.40;5.70;;;;;;;18.89;100.00;96892.72;109482;1283;138727;-91
2023/08/24 08:58:03;;;;;;;7.00;5.90;;;;;;;18.98;100.00;96895.23;109641;1286;22906;-91
2023/08/24 09:00:30;;;;;;;7.40;5.20;;;;;;;19.06;100.00;96893.73;109576;1286;22334;-90
2023/08/24 09:02:57;;;;;;;6.80;5.50;;;;;;;19.15;100.00;96891.73;109500;1290;138422;-91
2023/08/24 09:05:26;;;;;;;6.90;5.20;;;;;;;19.23;100.00;96891.06;109590;1290;22298;-91
2023/08/24 09:07:53;;;;;;;5.40;4.80;;;;;;;19.30;100.00;96889.83;109456;1289;138572;-91
2023/08/24 09:10:23;;;;;;;6.70;5.00;;;;;;;19.37;100.00;96891.11;109584;1286;22336;-91
2023/08/24 09:12:57;;;;;;;5.40;4.90;;;;;;;19.43;100.00;96893.41;109513;1288;139784;-92
2023/08/24 09:15:26;;;;;;;5.30;4.10;;;;;;;19.47;100.00;96893.98;109608;1288;22242;-91
2023/08/24 09:17:54;;;;;;;4.90;3.60;;;;;;;19.51;100.00;96899.98;109539;1290;22228;-92
2023/08/24 09:20:41;;;;;;;5.50;3.30;;;;;;;19.57;99.52;96899.77;109478;1282;139243;-92
2023/08/24 09:23:17;;;;;;;6.00;3.00;;;;;;;19.67;97.04;96894.63;109576;1289;22325;-92
2023/08/24 09:25:47;;;;;;;4.00;3.10;;;;;;;19.77;93.58;96893.77;109445;1289;138509;-92
2023/08/24 09:28:13;;;;;;;4.10;2.90;;;;;;;19.90;92.16;96892.13;109593;1283;22402;-92
2023/08/24 09:30:41;;;;;;;4.70;3.30;;;;;;;19.98;91.66;96890.19;109385;1290;138904;-91
2023/08/24 09:33:11;;;;;;;3.90;2.80;;;;;;;20.04;95.34;96890.14;109547;1286;22224;-91
2023/08/24 09:36:01;;;;;;;4.90;2.80;;;;;;;20.07;92.54;96891.10;109604;1283;22244;-91
2023/08/24 09:38:51;;;;;;;3.10;2.50;;;;;;;20.12;92.00;96892.52;109511;1290;138185;-91
2023/08/24 09:41:53;;;;;;;4.30;3.50;;;;;;;20.19;97.72;96880.98;109606;1283;22291;-91
2023/08/24 09:44:19;;;;;;;8.60;3.40;;;;;;;20.23;99.76;96880.31;109494;1283;138522;-91
2023/08/24 09:46:46;;;;;;;3.10;2.60;;;;;;;20.18;91.21;96882.54;109539;1291;22165;-91
2023/08/24 09:49:12;;;;;;;4.70;3.30;;;;;;;20.22;93.09;96881.14;109442;1286;138584;-92
2023/08/24 09:51:40;;;;;;;4.20;2.80;;;;;;;20.28;93.29;96883.95;109495;1286;22220;-91
2023/08/24 09:54:08;;;;;;;3.70;2.90;;;;;;;20.33;90.34;96881.70;109524;1285;22720;-92
2023/08/24 09:56:37;;;;;;;3.70;2.80;;;;;;;20.41;88.59;96883.85;109387;1283;138395;-91
2023/08/24 09:59:11;;;;;;;4.00;2.50;;;;;;;20.50;87.54;96875.54;109677;1290;22270;-91
2023/08/24 10:01:41;;;;;;;3.70;2.80;;;;;;;20.56;87.87;96875.05;109433;1283;138270;-93
2023/08/24 10:04:08;;;;;;;4.40;2.70;;;;;;;20.61;88.02;96874.70;109516;1289;22316;-91
2023/08/24 10:06:34;;;;;;;3.70;2.40;;;;;;;20.65;92.15;96873.89;109436;1283;138903;-91
2023/08/24 10:09:05;;;;;;;5.00;2.90;;;;;;;20.64;90.12;96873.78;109574;1286;22279;-91
2023/08/24 10:11:31;;;;;;;3.80;2.20;;;;;;;20.63;87.65;96864.23;109503;1286;22780;-92
2023/08/24 10:14:10;;;;;;;4.50;2.60;;;;;;;20.64;87.38;96866.27;109386;1285;139125;-91
2023/08/24 10:16:38;;;;;;;3.90;2.70;;;;;;;20.67;86.95;96866.55;109667;1286;22193;-92
2023/08/24 10:19:24;;;;;;;4.50;3.00;;;;;;;20.72;84.09;96867.55;109418;1289;138287;-91
2023/08/24 10:21:51;;;;;;;4.20;2.80;;;;;;;20.79;84.71;96865.83;109607;1284;22681;-92
2023/08/24 10:24:18;;;;;;;5.50;2.80;;;;;;;20.86;87.19;96866.35;109442;1286;22238;-91
2023/08/24 10:26:44;;;;;;;3.80;2.70;;;;;;;20.90;85.02;96863.05;109362;1284;138429;-92
2023/08/24 10:29:10;;;;;;;5.00;2.70;;;;;;;20.98;85.12;96862.92;109502;1291;22232;-92
2023/08/24 10:31:37;;;;;;;4.30;2.90;;;;;;;21.06;87.98;96862.65;109406;1286;138154;-91
2023/08/24 10:34:05;;;;;;;3.90;3.00;;;;;;;21.12;90.11;96863.90;109480;1290;22305;-91
2023/08/24 10:36:31;;;;;;;3.30;2.30;;;;;;;21.14;90.83;96860.61;109549;1289;22203;-91
2023/08/24 10:39:05;;;;;;;3.90;2.90;;;;;;;21.14;89.33;96860.89;109517;1286;22204;-92
2023/08/24 10:41:47;;;;;;;;;;;;;;;21.19;90.97;96859.41;109500;1286;22417;-92
2023/08/24 10:44:44;;;;;;;;;;;;;;;21.21;88.12;96855.74;109501;1290;124927;-92
2023/08/24 10:47:16;;;;;;;;;;;;;;;21.27;88.54;96850.05;109605;1283;22479;-92
2023/08/24 10:49:44;;;;;;;;;;;;;;;21.34;89.31;96852.68;109598;1286;125161;-92
2023/08/24 10:52:18;;;;;;;;;;;;;;;21.41;90.36;96845.64;109681;1282;23134;-91
2023/08/24 10:54:47;;;;;;;;;;;;;;;21.46;88.00;96844.02;109551;1283;125305;-92
2023/08/24 10:57:24;;;;;;;;;;;;;;;21.53;88.34;96844.64;109621;1286;22433;-92
2023/08/24 11:00:05;;;;;;;;;;;;;;;21.56;87.89;96841.78;109651;1289;22486;-91
2023/08/24 11:02:42;;;;;;;;;;;;;;;21.60;91.98;96835.64;109596;1283;125081;-91
2023/08/24 11:05:24;;;;;;;;;;;;;;;21.59;90.54;96839.48;109644;1288;22442;-91
2023/08/24 11:07:53;;;;;;;;;;;;;;;21.58;85.80;96846.83;109544;1288;125031;-92
2023/08/24 11:10:42;;;;;;;;;;;;;;;21.64;87.49;96842.10;109671;1287;22471;-91
2023/08/24 11:13:10;;;;;;;;;;;;;;;21.70;90.36;96836.75;109592;1284;124770;-92
2023/08/24 11:15:42;;;;;;;;;;;;;;;21.76;85.23;96832.61;109627;1284;22497;-91
2023/08/24 11:18:14;;;;;;;;;;;;;;;21.83;83.50;96827.06;109658;1287;23156;-92
2023/08/24 11:20:42;;;;;;;;;;;;;;;21.92;81.65;96830.48;109523;1286;124800;-91
2023/08/24 11:23:08;;;;;;;;;;;;;;;22.01;78.77;96830.09;109625;1289;22430;-92
2023/08/24 11:25:36;;;;;;;;;;;;;;;22.10;78.69;96829.27;109588;1286;124857;-90
2023/08/24 11:28:03;;;;;;;;;;;;;;;22.18;78.30;96827.12;109672;1284;22445;-92
2023/08/24 11:30:33;;;;;;;;;;;;;;;22.25;79.41;96824.86;109650;1283;23174;-91